Time;durP1;ratioP1;P1;durP2;ratioP2;P2;SDS_P1;SDS_P2;PMS_P1;PMS_P2;Temp;Humidity;BMP_temperature;BMP_pressure;BME280_temperature;BME280_humidity;BME280_pressure;Samples;Min_cycle;Max_cycle;Signal;HPM_P1;HPM_P2
2022/03/05 00:00:44;;;;;;;;;;;;;;;27.45;61.71;96818.00;584664;242;65323;-71
2022/03/05 00:03:13;;;;;;;;;;;;;;;27.46;57.71;96813.39;584614;242;68521;-71
2022/03/05 00:05:40;;;;;;;;;;;;;;;27.45;61.99;96819.91;584629;242;66505;-71
2022/03/05 00:08:08;;;;;;;;;;;;;;;27.44;58.36;96821.00;584593;242;65587;-71
2022/03/05 00:10:37;;;;;;;;;;;;;;;27.45;61.95;96819.91;584626;242;69479;-71
2022/03/05 00:13:05;;;;;;;;;;;;;;;27.44;56.90;96815.60;584677;242;68102;-71
2022/03/05 00:15:33;;;;;;;;;;;;;;;27.45;60.20;96812.59;584612;242;65373;-71
2022/03/05 00:18:00;;;;;;;;;;;;;;;27.42;58.62;96813.23;584612;242;68841;-71
2022/03/05 00:20:29;;;;;;;;;;;;;;;27.40;60.43;96814.66;584608;242;46343;-70
2022/03/05 00:22:57;;;;;;;;;;;;;;;27.40;57.08;96810.05;584608;242;64122;-70
2022/03/05 00:25:25;;;;;;;;;;;;;;;27.41;58.23;96805.45;584637;242;68655;-70
2022/03/05 00:27:53;;;;;;;;;;;;;;;27.40;59.49;96807.36;584639;242;66483;-70
2022/03/05 00:30:22;;;;;;;;;;;;;;;27.39;60.33;96810.36;584612;242;63256;-70
2022/03/05 00:32:50;;;;;;;;;;;;;;;27.38;57.24;96816.88;581569;242;66431;-71
2022/03/05 00:35:18;;;;;;;;;;;;;;;27.36;61.91;96813.70;584589;242;68725;-71
2022/03/05 00:37:45;;;;;;;;;;;;;;;27.35;57.08;96812.91;584648;242;65458;-70
2022/03/05 00:40:13;;;;;;;;;;;;;;;27.37;56.67;96813.39;584646;242;68323;-70
2022/03/05 00:42:40;;;;;;;;;;;;;;;27.36;57.79;96817.19;584562;241;68668;-70
2022/03/05 00:45:08;;;;;;;;;;;;;;;27.36;59.42;96816.39;584600;242;62601;-70
2022/03/05 00:47:36;;;;;;;;;;;;;;;27.33;57.66;96812.42;584606;242;66539;-70
2022/03/05 00:50:05;;;;;;;;;;;;;;;27.33;58.43;96808.94;584580;242;68695;-70
2022/03/05 00:52:34;;;;;;;;;;;;;;;27.33;58.62;96812.42;584663;242;63242;-70
2022/03/05 00:55:02;;;;;;;;;;;;;;;27.30;59.56;96812.27;584607;242;68847;-70
2022/03/05 00:57:29;;;;;;;;;;;;;;;27.29;59.59;96803.39;584602;242;68574;-70
2022/03/05 00:59:57;;;;;;;;;;;;;;;27.28;58.93;96803.70;584628;242;65427;-70
2022/03/05 01:02:24;;;;;;;;;;;;;;;27.28;59.50;96809.09;584573;242;68631;-70
2022/03/05 01:04:52;;;;;;;;;;;;;;;27.26;59.45;96809.42;584589;242;66420;-70
2022/03/05 01:07:19;;;;;;;;;;;;;;;27.25;60.88;96815.13;584652;242;62926;-69
2022/03/05 01:09:47;;;;;;;;;;;;;;;27.22;60.73;96814.64;584589;242;66526;-70
2022/03/05 01:12:14;;;;;;;;;;;;;;;27.21;60.36;96807.67;584584;242;66576;-70
2022/03/05 01:14:42;;;;;;;;;;;;;;;27.21;59.14;96807.67;584620;242;63115;-70
2022/03/05 01:17:09;;;;;;;;;;;;;;;27.21;61.08;96812.27;584615;242;66087;-70
2022/03/05 01:19:37;;;;;;;;;;;;;;;27.20;58.42;96800.70;584626;242;68743;-69
2022/03/05 01:22:05;;;;;;;;;;;;;;;27.19;59.10;96809.09;584609;242;64108;-71
2022/03/05 01:24:33;;;;;;;;;;;;;;;27.19;60.57;96811.79;584596;242;66100;-71
2022/03/05 01:27:00;;;;;;;;;;;;;;;27.19;58.12;96809.09;584620;242;66236;-71
2022/03/05 01:29:28;;;;;;;;;;;;;;;27.20;59.25;96821.45;584590;242;63029;-70
2022/03/05 01:31:56;;;;;;;;;;;;;;;27.18;58.72;96812.91;584654;242;69177;-70
2022/03/05 01:34:23;;;;;;;;;;;;;;;27.16;57.62;96809.70;584562;242;68888;-70
2022/03/05 01:36:51;;;;;;;;;;;;;;;27.16;59.83;96820.48;584619;242;65416;-70
2022/03/05 01:39:18;;;;;;;;;;;;;;;27.14;59.96;96812.70;584593;242;68785;-70
2022/03/05 01:41:48;;;;;;;;;;;;;;;27.13;59.35;96811.12;584583;242;68601;-70
2022/03/05 01:44:15;;;;;;;;;;;;;;;27.13;57.94;96805.73;587878;240;65401;-70
2022/03/05 01:46:43;;;;;;;;;;;;;;;27.14;60.49;96811.91;589427;240;68630;-70
2022/03/05 01:49:11;;;;;;;;;;;;;;;27.12;60.52;96814.94;589454;240;66412;-70
2022/03/05 01:51:39;;;;;;;;;;;;;;;27.10;59.43;96816.36;589391;240;64052;-70
2022/03/05 01:54:08;;;;;;;;;;;;;;;27.10;58.24;96817.16;589495;240;66206;-70
2022/03/05 01:56:35;;;;;;;;;;;;;;;27.09;57.90;96815.58;589383;240;68786;-70
2022/03/05 01:59:03;;;;;;;;;;;;;;;27.09;58.53;96815.58;589416;240;65378;-70
2022/03/05 02:01:31;;;;;;;;;;;;;;;27.08;60.00;96816.66;589422;240;68909;-70
2022/03/05 02:04:00;;;;;;;;;;;;;;;27.06;59.36;96821.57;589436;240;66620;-70
2022/03/05 02:06:27;;;;;;;;;;;;;;;27.06;57.98;96821.57;589425;240;65367;-70
2022/03/05 02:08:58;;;;;;;;;;;;;;;27.06;58.07;96818.09;589440;240;68637;-70
2022/03/05 02:11:26;;;;;;;;;;;;;;;27.04;58.14;96821.12;589434;240;68572;-69
2022/03/05 02:13:54;;;;;;;;;;;;;;;27.04;58.44;96818.42;589435;240;65840;-69
2022/03/05 02:16:22;;;;;;;;;;;;;;;27.03;58.58;96819.52;589452;240;68653;-70
2022/03/05 02:18:50;;;;;;;;;;;;;;;27.01;57.80;96824.45;589433;240;67310;-71
2022/03/05 02:21:18;;;;;;;;;;;;;;;27.00;58.58;96823.63;589454;240;62964;-70
2022/03/05 02:23:45;;;;;;;;;;;;;;;26.99;57.89;96819.36;589387;240;68629;-70
2022/03/05 02:26:13;;;;;;;;;;;;;;;26.99;61.46;96823.96;589435;240;68336;-70
2022/03/05 02:28:40;;;;;;;;;;;;;;;26.97;59.56;96818.08;589429;240;64982;-71
2022/03/05 02:31:08;;;;;;;;;;;;;;;26.97;58.76;96823.47;589411;240;66468;-70
2022/03/05 02:33:35;;;;;;;;;;;;;;;26.96;59.43;96828.08;589476;240;68527;-70
2022/03/05 02:36:04;;;;;;;;;;;;;;;26.96;57.96;96819.20;589377;240;65159;-70
2022/03/05 02:38:31;;;;;;;;;;;;;;;26.94;58.88;96826.80;589475;240;68822;-70
2022/03/05 02:40:58;;;;;;;;;;;;;;;26.94;60.41;96821.41;589437;240;68230;-70
2022/03/05 02:43:26;;;;;;;;;;;;;;;26.93;59.04;96827.92;587832;240;65379;-70
2022/03/05 02:45:54;;;;;;;;;;;;;;;26.91;58.94;96828.22;584647;242;68346;-71
2022/03/05 02:48:22;;;;;;;;;;;;;;;26.91;60.25;96824.73;584562;242;68699;-70
2022/03/05 02:50:50;;;;;;;;;;;;;;;26.90;57.90;96828.52;584601;242;66675;-70
2022/03/05 02:53:18;;;;;;;;;;;;;;;26.88;58.97;96823.46;584595;242;66165;-71
2022/03/05 02:55:46;;;;;;;;;;;;;;;26.88;60.42;96825.38;584597;242;68456;-70
2022/03/05 02:58:14;;;;;;;;;;;;;;;26.86;58.93;96822.19;584646;242;63022;-70
2022/03/05 03:00:42;;;;;;;;;;;;;;;26.86;60.49;96825.67;584645;242;66134;-71
2022/03/05 03:03:09;;;;;;;;;;;;;;;26.86;59.20;96819.48;584448;242;66398;-71
2022/03/05 03:05:37;;;;;;;;;;;;;;;26.86;59.92;96822.19;584631;242;65193;-71
2022/03/05 03:08:04;;;;;;;;;;;;;;;26.84;59.58;96827.88;584577;242;68423;-70
2022/03/05 03:10:32;;;;;;;;;;;;;;;26.83;60.54;96833.59;584605;242;68484;-70
2022/03/05 03:13:00;;;;;;;;;;;;;;;26.82;60.39;96834.69;584603;242;66175;-70
2022/03/05 03:15:27;;;;;;;;;;;;;;;26.79;58.62;96828.02;584581;242;68688;-70
2022/03/05 03:17:55;;;;;;;;;;;;;;;26.79;58.39;96833.41;584571;242;67370;-70
2022/03/05 03:20:24;;;;;;;;;;;;;;;26.78;58.69;96829.92;584569;242;65878;-70
2022/03/05 03:22:53;;;;;;;;;;;;;;;26.77;58.86;96835.64;584614;242;66465;-71
2022/03/05 03:25:21;;;;;;;;;;;;;;;26.76;58.40;96837.55;584646;242;68367;-71
2022/03/05 03:27:49;;;;;;;;;;;;;;;26.76;59.99;96832.16;584580;242;65413;-71
2022/03/05 03:30:17;;;;;;;;;;;;;;;26.75;60.07;96837.86;584591;242;67620;-71
2022/03/05 03:32:46;;;;;;;;;;;;;;;26.74;60.36;96831.67;584585;242;68977;-71
2022/03/05 03:35:16;;;;;;;;;;;;;;;26.74;60.12;96830.88;584583;242;62639;-70
2022/03/05 03:37:44;;;;;;;;;;;;;;;26.72;59.63;96825.00;584640;242;68885;-70
2022/03/05 03:40:13;;;;;;;;;;;;;;;26.71;59.69;96831.48;584598;242;66399;-70
2022/03/05 03:42:40;;;;;;;;;;;;;;;26.70;60.44;96829.91;584522;241;65202;-70
2022/03/05 03:45:09;;;;;;;;;;;;;;;26.69;59.02;96831.03;584586;242;68934;-70
2022/03/05 03:47:36;;;;;;;;;;;;;;;26.69;60.71;96837.20;584589;242;68685;-70
2022/03/05 03:50:05;;;;;;;;;;;;;;;26.69;59.58;96836.41;584577;242;65003;-70
2022/03/05 03:52:33;;;;;;;;;;;;;;;26.66;61.74;96835.14;584654;242;68725;-70
2022/03/05 03:55:01;;;;;;;;;;;;;;;26.64;59.11;96840.03;584594;242;68601;-70
2022/03/05 03:57:29;;;;;;;;;;;;;;;26.64;60.55;96841.95;584561;242;63059;-70
2022/03/05 03:59:56;;;;;;;;;;;;;;;26.63;61.15;96845.73;584560;242;68652;-69
2022/03/05 04:02:24;;;;;;;;;;;;;;;26.61;61.11;96843.36;584575;242;68842;-70
2022/03/05 04:04:51;;;;;;;;;;;;;;;26.62;60.32;96855.72;584633;242;65118;-70
2022/03/05 04:10:05;;;;;;;;;;;;;;;26.58;59.83;96854.77;584610;242;68666;-69
2022/03/05 04:12:32;;;;;;;;;;;;;;;26.58;61.04;96856.67;584627;242;65118;-69
2022/03/05 04:15:00;;;;;;;;;;;;;;;26.57;60.32;96855.85;584624;242;68617;-69
2022/03/05 04:17:28;;;;;;;;;;;;;;;26.56;60.42;96852.38;584611;242;66437;-69
2022/03/05 04:19:58;;;;;;;;;;;;;;;26.55;61.93;96855.39;584697;242;63101;-69
2022/03/05 04:22:28;;;;;;;;;;;;;;;26.54;60.27;96861.87;584564;242;69035;-69
2022/03/05 04:24:56;;;;;;;;;;;;;;;26.53;62.13;96855.69;584607;242;68998;-70
2022/03/05 04:27:23;;;;;;;;;;;;;;;26.52;62.67;96856.81;584605;242;65147;-70
2022/03/05 04:29:51;;;;;;;;;;;;;;;26.52;62.49;96858.72;584597;242;68865;-70
2022/03/05 04:32:18;;;;;;;;;;;;;;;26.50;60.59;96861.67;584670;242;68546;-70
2022/03/05 04:34:46;;;;;;;;;;;;;;;26.50;61.39;96860.88;584610;242;65364;-70
2022/03/05 04:37:13;;;;;;;;;;;;;;;26.48;61.91;96871.97;584591;242;68777;-70
2022/03/05 04:39:41;;;;;;;;;;;;;;;26.47;60.61;96864.20;584629;242;68451;-70
2022/03/05 04:42:08;;;;;;;;;;;;;;;26.45;60.21;96863.71;584596;242;65407;-70
2022/03/05 04:44:36;;;;;;;;;;;;;;;26.45;62.86;96866.41;588545;240;68696;-70
2022/03/05 04:47:03;;;;;;;;;;;;;;;26.44;62.49;96867.52;589440;240;68470;-70
2022/03/05 04:49:31;;;;;;;;;;;;;;;26.43;62.29;96861.31;589415;240;65399;-70
2022/03/05 04:51:58;;;;;;;;;;;;;;;26.43;60.69;96860.52;589410;240;68740;-70
2022/03/05 04:54:29;;;;;;;;;;;;;;;26.42;63.82;96859.73;589427;240;68513;-70
2022/03/05 04:56:55;;;;;;;;;;;;;;;26.41;60.94;96866.24;589445;240;65468;-70
2022/03/05 04:59:22;;;;;;;;;;;;;;;26.40;62.27;96863.84;589386;240;68887;-70
2022/03/05 05:01:50;;;;;;;;;;;;;;;26.38;61.72;96858.75;589394;240;68827;-71
2022/03/05 05:04:17;;;;;;;;;;;;;;;26.39;62.71;96862.27;589401;240;65367;-70
2022/03/05 05:06:45;;;;;;;;;;;;;;;26.36;63.08;96863.68;589455;240;68754;-70
2022/03/05 05:09:12;;;;;;;;;;;;;;;26.33;64.18;96870.48;589446;240;66173;-71
2022/03/05 05:11:41;;;;;;;;;;;;;;;26.34;62.34;96863.19;589470;240;62948;-71
2022/03/05 05:14:10;;;;;;;;;;;;;;;26.33;61.94;96866.99;589434;240;68659;-70
2022/03/05 05:16:38;;;;;;;;;;;;;;;26.32;61.69;96868.87;589377;240;69306;-70
2022/03/05 05:19:24;;;;;;;;;;;;;;;26.31;63.93;96872.67;589425;240;66381;-71
2022/03/05 05:21:53;;;;;;;;;;;;;;;26.30;62.88;96867.59;589402;240;68694;-70
2022/03/05 05:24:20;;;;;;;;;;;;;;;26.30;63.26;96875.67;588967;240;68680;-70
2022/03/05 05:26:48;;;;;;;;;;;;;;;26.28;64.96;96884.08;589334;240;66302;-70
2022/03/05 05:29:16;;;;;;;;;;;;;;;26.27;61.86;96889.75;589434;240;69468;-70
2022/03/05 05:31:43;;;;;;;;;;;;;;;26.27;63.76;96887.88;589437;240;66424;-70
2022/03/05 05:34:11;;;;;;;;;;;;;;;26.27;63.58;96897.84;589445;240;64284;-70
2022/03/05 05:36:39;;;;;;;;;;;;;;;26.24;63.82;96893.86;589433;240;68354;-69
2022/03/05 05:39:07;;;;;;;;;;;;;;;26.25;65.31;96900.06;589476;240;66446;-69
2022/03/05 05:41:35;;;;;;;;;;;;;;;26.23;63.41;96894.97;589353;240;65328;-70
2022/03/05 05:44:05;;;;;;;;;;;;;;;26.22;63.03;96890.70;589369;240;68911;-69
2022/03/05 05:46:32;;;;;;;;;;;;;;;26.21;63.14;96902.56;589365;239;68635;-69
2022/03/05 05:49:02;;;;;;;;;;;;;;;26.21;64.00;96905.25;589396;239;67390;-70
2022/03/05 05:51:33;;;;;;;;;;;;;;;26.21;63.82;96913.33;589462;240;68754;-70
2022/03/05 05:54:02;;;;;;;;;;;;;;;26.18;64.84;96913.16;589337;240;68929;-70
2022/03/05 05:56:32;;;;;;;;;;;;;;;26.16;64.41;96921.53;589398;240;65438;-70
2022/03/05 05:58:59;;;;;;;;;;;;;;;26.15;64.61;96924.55;589444;240;68716;-71
2022/03/05 06:01:27;;;;;;;;;;;;;;;26.14;64.19;96926.45;589386;240;68504;-72
2022/03/05 06:03:54;;;;;;;;;;;;;;;26.14;65.61;96926.45;589465;240;65466;-72
2022/03/05 06:06:22;;;;;;;;;;;;;;;26.14;64.35;96921.07;589455;240;68730;-72
2022/03/05 06:08:50;;;;;;;;;;;;;;;26.14;65.12;96937.23;589425;240;68477;-72
2022/03/05 06:11:18;;;;;;;;;;;;;;;26.12;61.93;96934.04;589422;240;65372;-73
2022/03/05 06:13:45;;;;;;;;;;;;;;;26.11;63.71;96933.25;589402;240;68810;-72
2022/03/05 06:16:21;;;;;;;;;;;;;;;26.11;62.41;96943.23;589432;240;65951;-72
2022/03/05 06:18:45;;;;;;;;;;;;;;;26.10;63.17;96933.55;589160;240;65488;-71
2022/03/05 06:21:12;;;;;;;;;;;;;;;26.07;63.83;96944.93;589429;240;68827;-71
2022/03/05 06:23:43;;;;;;;;;;;;;;;26.08;63.90;96946.51;589404;240;48080;-71
2022/03/05 06:26:11;;;;;;;;;;;;;;;26.08;64.59;96947.33;589418;240;63877;-71
2022/03/05 06:28:38;;;;;;;;;;;;;;;26.07;64.40;96953.01;589411;240;66839;-71
2022/03/05 06:31:05;;;;;;;;;;;;;;;26.06;65.07;96956.81;589448;240;66787;-71
2022/03/05 06:33:33;;;;;;;;;;;;;;;26.04;61.97;96951.72;589366;240;65204;-71
2022/03/05 06:36:01;;;;;;;;;;;;;;;26.05;64.63;96952.52;589445;240;68698;-71
2022/03/05 06:38:28;;;;;;;;;;;;;;;26.03;62.07;96954.73;589412;240;68492;-71
2022/03/05 06:40:56;;;;;;;;;;;;;;;26.03;65.07;96949.35;589405;240;65459;-72
2022/03/05 06:43:25;;;;;;;;;;;;;;;26.02;64.39;96956.61;587878;240;69071;-72
2022/03/05 06:45:52;;;;;;;;;;;;;;;26.01;64.52;96960.41;584597;242;68574;-71
2022/03/05 06:48:20;;;;;;;;;;;;;;;25.99;63.53;96961.81;584558;242;67304;-71
2022/03/05 06:50:47;;;;;;;;;;;;;;;25.99;63.62;96957.22;584510;242;68243;-72
2022/03/05 06:53:15;;;;;;;;;;;;;;;25.97;64.00;96964.01;584586;242;68291;-65
2022/03/05 06:55:42;;;;;;;;;;;;;;;25.97;64.44;96956.72;583972;242;65314;-68
2022/03/05 06:58:10;;;;;;;;;;;;;;;25.97;65.19;96969.39;584583;242;68749;-69
2022/03/05 07:00:38;;;;;;;;;;;;;;;25.96;64.35;96957.05;584402;242;68076;-70
2022/03/05 07:03:05;;;;;;;;;;;;;;;25.96;64.80;96971.30;582773;242;65057;-70
2022/03/05 07:05:33;;;;;;;;;;;;;;;25.95;65.70;96969.72;582857;243;68228;-69
2022/03/05 07:08:00;;;;;;;;;;;;;;;25.95;64.89;96977.00;582775;243;66151;-70
2022/03/05 07:10:28;;;;;;;;;;;;;;;25.94;64.10;96978.88;582833;243;63168;-69
2022/03/05 07:12:55;;;;;;;;;;;;;;;25.91;63.01;96982.97;582931;243;68716;-69
2022/03/05 07:15:23;;;;;;;;;;;;;;;25.94;65.55;96980.78;582872;243;68658;-69
2022/03/05 07:17:51;;;;;;;;;;;;;;;25.93;65.94;96974.60;582815;243;64160;-70
2022/03/05 07:20:21;;;;;;;;;;;;;;;25.88;60.53;96972.81;582875;242;66668;-70
2022/03/05 07:22:49;;;;;;;;;;;;;;;25.90;64.92;96978.70;582938;243;68771;-70
2022/03/05 07:25:16;;;;;;;;;;;;;;;25.85;59.89;96978.02;582821;243;65312;-68
2022/03/05 07:27:44;;;;;;;;;;;;;;;25.88;62.41;96978.19;582860;243;68972;-69
2022/03/05 07:30:11;;;;;;;;;;;;;;;25.89;62.65;96970.91;582876;243;66496;-71
2022/03/05 07:32:39;;;;;;;;;;;;;;;25.88;62.86;96972.02;582817;243;64262;-70
2022/03/05 07:35:09;;;;;;;;;;;;;;;25.85;64.60;96970.73;582922;243;56346;-68
2022/03/05 07:37:38;;;;;;;;;;;;;;;25.84;63.52;96963.77;582979;243;48201;-67
2022/03/05 07:40:07;;;;;;;;;;;;;;;25.87;60.72;96968.54;582818;243;65152;-67
2022/03/05 07:42:34;;;;;;;;;;;;;;;25.91;63.33;96960.64;582783;243;68832;-68
2022/03/05 07:45:02;;;;;;;;;;;;;;;25.89;64.56;96971.73;585721;240;66666;-76
2022/03/05 07:47:29;;;;;;;;;;;;;;;25.85;62.28;96965.34;581739;244;66473;-72
2022/03/05 07:49:57;;;;;;;;;;;;;;;25.88;60.72;96972.81;581815;244;68769;-72
2022/03/05 07:52:24;;;;;;;;;;;;;;;25.91;64.18;96966.81;581564;244;66304;-72
2022/03/05 07:54:52;;;;;;;;;;;;;;;25.95;63.45;96969.72;581747;244;65470;-69
2022/03/05 07:57:21;;;;;;;;;;;;;;;25.96;63.76;96967.81;581766;244;68580;-71
2022/03/05 07:59:50;;;;;;;;;;;;;;;25.94;64.46;96960.03;581791;244;48929;-65
2022/03/05 08:02:18;;;;;;;;;;;;;;;25.93;64.74;96963.05;581760;244;65277;-71
2022/03/05 08:04:47;;;;;;;;;;;;;;;25.93;63.66;96960.34;581757;244;66441;-71
2022/03/05 08:07:15;;;;;;;;;;;;;;;25.90;64.38;96965.23;581684;244;68583;-71
2022/03/05 08:09:43;;;;;;;;;;;;;;;25.90;63.49;96951.77;581675;244;63043;-70
2022/03/05 08:12:14;;;;;;;;;;;;;;;25.90;63.52;96953.67;581805;244;52096;-72
2022/03/05 08:14:42;;;;;;;;;;;;;;;25.89;63.71;96955.58;581715;244;66593;-72
2022/03/05 08:17:10;;;;;;;;;;;;;;;25.89;63.67;96966.34;581803;244;62671;-73
2022/03/05 08:19:37;;;;;;;;;;;;;;;25.89;63.73;96963.66;581758;244;68657;-72
2022/03/05 08:22:05;;;;;;;;;;;;;;;25.90;62.69;96967.92;581735;244;68621;-72
2022/03/05 08:24:32;;;;;;;;;;;;;;;25.90;64.07;96959.84;581761;244;62996;-72
2022/03/05 08:27:00;;;;;;;;;;;;;;;25.90;63.34;96959.84;581672;244;66463;-73
2022/03/05 08:29:28;;;;;;;;;;;;;;;25.91;62.63;96955.25;581707;244;66492;-74
2022/03/05 08:31:57;;;;;;;;;;;;;;;25.91;63.49;96956.05;581780;244;65272;-76
2022/03/05 08:34:24;;;;;;;;;;;;;;;25.92;64.20;96956.87;581220;244;66642;-72
2022/03/05 08:36:51;;;;;;;;;;;;;;;25.92;64.33;96948.79;579404;244;66463;-75
2022/03/05 08:39:19;;;;;;;;;;;;;;;25.91;61.97;96947.97;580186;244;63400;-70
2022/03/05 08:41:48;;;;;;;;;;;;;;;25.94;63.19;96948.47;580440;244;47554;-76
2022/03/05 08:44:16;;;;;;;;;;;;;;;25.97;63.03;96947.86;581995;243;68633;-71
2022/03/05 08:46:43;;;;;;;;;;;;;;;25.97;60.65;96947.86;582847;243;62495;-73
2022/03/05 08:49:13;;;;;;;;;;;;;;;25.99;62.23;96934.89;582841;243;50129;-72
2022/03/05 08:51:43;;;;;;;;;;;;;;;26.00;62.69;96942.67;582874;243;46466;-72
2022/03/05 08:54:10;;;;;;;;;;;;;;;26.03;63.65;96949.35;582817;243;63194;-71
2022/03/05 08:56:41;;;;;;;;;;;;;;;26.02;62.34;96945.84;583312;242;66562;-72
2022/03/05 08:59:08;;;;;;;;;;;;;;;26.05;61.41;96944.44;583384;242;66799;-71
2022/03/05 09:01:36;;;;;;;;;;;;;;;26.05;62.51;96945.22;588785;240;65407;-70
2022/03/05 09:04:05;;;;;;;;;;;;;;;26.07;63.26;96942.23;589239;240;68567;-70
2022/03/05 09:06:33;;;;;;;;;;;;;;;26.08;62.93;96941.95;589225;240;68608;-72
2022/03/05 09:09:00;;;;;;;;;;;;;;;26.10;62.43;96947.01;589280;240;65452;-72
2022/03/05 09:11:28;;;;;;;;;;;;;;;26.11;63.37;96938.63;589182;240;68641;-65
2022/03/05 09:13:55;;;;;;;;;;;;;;;26.13;62.52;96941.00;589260;240;68669;-73
2022/03/05 09:16:23;;;;;;;;;;;;;;;26.17;61.78;96944.70;589218;240;66415;-73
2022/03/05 09:18:51;;;;;;;;;;;;;;;26.20;62.22;96951.37;589290;240;68412;-70
2022/03/05 09:21:18;;;;;;;;;;;;;;;26.22;62.87;96949.14;589323;240;66326;-73
2022/03/05 09:23:47;;;;;;;;;;;;;;;26.23;62.73;96953.45;589306;240;63055;-75
2022/03/05 09:26:15;;;;;;;;;;;;;;;26.25;62.33;96949.34;589289;240;68895;-73
2022/03/05 09:28:44;;;;;;;;;;;;;;;26.27;63.68;96957.92;589273;240;66471;-74
2022/03/05 09:31:12;;;;;;;;;;;;;;;26.29;62.04;96958.39;589391;240;65171;-73
2022/03/05 09:33:39;;;;;;;;;;;;;;;26.30;61.88;96957.30;589294;239;68801;-75
2022/03/05 09:36:07;;;;;;;;;;;;;;;26.32;62.57;96970.45;589306;240;68574;-83
2022/03/05 09:38:34;;;;;;;;;;;;;;;26.33;62.36;96964.77;589299;240;63192;-72
2022/03/05 09:41:03;;;;;;;;;;;;;;;26.36;61.84;96960.67;589160;240;66529;-74
2022/03/05 09:43:30;;;;;;;;;;;;;;;26.37;62.29;96964.16;588912;240;66551;-72
2022/03/05 09:45:59;;;;;;;;;;;;;;;26.39;62.15;96964.65;588111;241;63023;-72
2022/03/05 09:48:30;;;;;;;;;;;;;;;26.39;61.44;96959.27;587798;240;68916;-72
2022/03/05 09:50:58;;;;;;;;;;;;;;;26.41;63.26;96962.42;588109;241;68691;-72
2022/03/05 09:53:30;;;;;;;;;;;;;;;26.42;62.41;96964.03;587367;239;64987;-73
2022/03/05 09:55:58;;;;;;;;;;;;;;;26.44;62.22;96964.53;588212;241;68795;-73
2022/03/05 09:58:25;;;;;;;;;;;;;;;26.44;62.18;96965.31;588342;240;68846;-73
2022/03/05 10:00:53;;;;;;;;;;;;;;;26.43;60.43;96955.62;588309;241;65420;-77
2022/03/05 10:03:26;;;;;;;;;;;;;;;26.42;60.90;96961.34;588289;241;66151;-78
2022/03/05 10:05:53;;;;;;;;;;;;;;;26.39;61.48;96960.05;588238;241;68790;-78
2022/03/05 10:08:21;;;;;;;;;;;;;;;26.41;61.43;96954.34;588079;241;63029;-77
2022/03/05 10:10:49;;;;;;;;;;;;;;;26.41;62.03;96959.72;588322;241;66537;-77
2022/03/05 10:13:18;;;;;;;;;;;;;;;26.39;61.73;96957.36;588296;241;68958;-77
2022/03/05 10:15:45;;;;;;;;;;;;;;;26.40;60.97;96956.24;588334;241;63046;-78
2022/03/05 10:18:13;;;;;;;;;;;;;;;26.41;60.52;96947.08;588328;241;66572;-77
2022/03/05 10:20:45;;;;;;;;;;;;;;;26.43;60.84;96954.83;588310;241;66446;-77
2022/03/05 10:23:13;;;;;;;;;;;;;;;26.44;60.50;96951.05;588368;241;65252;-76
2022/03/05 10:25:41;;;;;;;;;;;;;;;26.44;61.68;96948.36;588299;241;68715;-78
2022/03/05 10:28:10;;;;;;;;;;;;;;;26.44;59.63;96949.15;588302;241;67416;-77
2022/03/05 10:30:49;;;;;;;;;;;;;;;26.46;59.40;96946.92;588460;239;47765;-77
2022/03/05 10:33:25;;;;;;;;;;;;;;;26.48;59.58;96946.63;588317;240;68417;-78
2022/03/05 10:35:52;;;;;;;;;;;;;;;26.50;59.67;96950.61;588124;240;68893;-79
2022/03/05 10:38:20;;;;;;;;;;;;;;;26.52;58.72;96955.73;588342;241;65139;-79
2022/03/05 10:40:55;;;;;;;;;;;;;;;26.52;60.03;96948.44;588302;241;66741;-78
2022/03/05 10:43:23;;;;;;;;;;;;;;;26.54;60.13;96945.41;588568;240;68678;-77
2022/03/05 10:45:55;;;;;;;;;;;;;;;26.57;58.41;96947.48;589331;240;65135;-77
2022/03/05 10:48:30;;;;;;;;;;;;;;;26.58;59.06;96938.31;589364;240;68750;-77
2022/03/05 10:50:58;;;;;;;;;;;;;;;26.59;58.41;96936.41;589357;240;66742;-77
2022/03/05 10:53:37;;;;;;;;;;;;;;;26.61;59.74;96939.59;589435;240;65418;-77
2022/03/05 10:56:22;;;;;;;;;;;;;;;26.60;58.48;96928.03;588784;240;68365;-77
2022/03/05 10:59:03;;;;;;;;;;;;;;;26.62;57.75;96931.19;589396;240;69253;-77
2022/03/05 11:01:34;;;;;;;;;;;;;;;26.63;57.41;96918.50;589404;239;63524;-77
2022/03/05 11:04:01;;;;;;;;;;;;;;;26.65;57.61;96922.48;589342;240;68536;-77
2022/03/05 11:06:29;;;;;;;;;;;;;;;26.65;57.46;96919.78;589318;239;68237;-77
2022/03/05 11:08:57;;;;;;;;;;;;;;;26.67;56.51;96922.97;589429;240;65354;-78
2022/03/05 11:11:27;;;;;;;;;;;;;;;26.69;56.87;96923.47;589408;240;68168;-79
2022/03/05 11:13:57;;;;;;;;;;;;;;;26.70;56.76;96924.25;589210;239;48220;-78
2022/03/05 11:16:25;;;;;;;;;;;;;;;26.70;57.42;96910.78;589374;240;65132;-77
2022/03/05 11:18:59;;;;;;;;;;;;;;;26.72;55.99;96913.96;589311;239;68560;-77
2022/03/05 11:21:28;;;;;;;;;;;;;;;26.72;57.00;96912.06;589404;240;68711;-77
2022/03/05 11:23:58;;;;;;;;;;;;;;;26.73;57.33;96904.76;589449;240;63169;-77
2022/03/05 11:26:27;;;;;;;;;;;;;;;26.73;57.27;96899.37;589449;239;68652;-77
2022/03/05 11:28:54;;;;;;;;;;;;;;;26.73;56.29;96889.38;589347;240;66866;-78
2022/03/05 11:31:23;;;;;;;;;;;;;;;26.74;56.56;96890.98;589345;239;63125;-78
2022/03/05 11:33:51;;;;;;;;;;;;;;;26.74;56.53;96895.59;589376;240;68637;-77
2022/03/05 11:36:38;;;;;;;;;;;;;;;26.75;57.14;96889.86;589439;239;68629;-77
2022/03/05 11:39:09;;;;;;;;;;;;;;;26.76;56.61;96888.77;589444;240;63120;-77
2022/03/05 11:41:50;;;;;;;;;;;;;;;26.76;56.15;96888.77;589392;240;68724;-76
2022/03/05 11:44:23;;;;;;;;;;;;;;;26.76;57.37;96883.38;588625;240;66097;-78
2022/03/05 11:46:51;;;;;;;;;;;;;;;26.77;56.37;96881.48;588169;239;62929;-77
2022/03/05 11:49:19;;;;;;;;;;;;;;;26.77;56.59;96884.17;588334;241;68962;-78
2022/03/05 11:51:58;;;;;;;;;;;;;;;26.77;56.35;96884.17;588223;239;47957;-77
2022/03/05 11:54:26;;;;;;;;;;;;;;;26.77;56.53;96882.27;588327;240;65930;-76
2022/03/05 11:57:18;;;;;;;;;;;;;;;26.77;56.10;96882.27;588308;241;68951;-77
2022/03/05 11:59:46;;;;;;;;;;;;;;;26.78;56.56;96886.55;588129;239;66292;-76
2022/03/05 12:02:15;;;;;;;;;;;;;;;26.78;56.43;96881.15;588345;241;65459;-75
2022/03/05 12:04:49;;;;;;;;;;;;;;;26.78;56.51;96874.97;587915;241;68726;-76
2022/03/05 12:07:22;;;;;;;;;;;;;;;26.79;56.46;96877.37;588341;241;65046;-77
2022/03/05 12:09:56;;;;;;;;;;;;;;;26.79;56.55;96876.55;588276;241;44327;-76
2022/03/05 12:12:24;;;;;;;;;;;;;;;26.79;56.23;96877.37;588427;241;68696;-77
2022/03/05 12:15:03;;;;;;;;;;;;;;;26.78;57.13;96870.37;588347;241;68502;-77
2022/03/05 12:17:32;;;;;;;;;;;;;;;26.79;57.60;96868.46;588349;241;65194;-76
2022/03/05 12:20:01;;;;;;;;;;;;;;;26.78;57.17;96867.67;588335;241;68695;-76
2022/03/05 12:22:31;;;;;;;;;;;;;;;26.78;57.68;96864.97;588126;239;68544;-76
2022/03/05 12:24:58;;;;;;;;;;;;;;;26.79;56.64;96860.37;588377;241;65533;-77
2022/03/05 12:27:30;;;;;;;;;;;;;;;26.79;56.31;96863.06;588324;241;66573;-76
2022/03/05 12:29:58;;;;;;;;;;;;;;;26.79;56.79;96858.49;585887;241;68736;-76
2022/03/05 12:32:30;;;;;;;;;;;;;;;26.79;57.06;96863.88;588347;241;63228;-77
2022/03/05 12:35:05;;;;;;;;;;;;;;;26.80;57.94;96861.98;588328;241;68584;-76
2022/03/05 12:37:34;;;;;;;;;;;;;;;26.80;56.11;96856.59;588258;240;68305;-76
2022/03/05 12:40:03;;;;;;;;;;;;;;;26.81;57.59;96862.77;588382;241;65338;-77
2022/03/05 12:42:37;;;;;;;;;;;;;;;26.79;56.26;96861.19;588277;241;66274;-77
2022/03/05 12:45:05;;;;;;;;;;;;;;;26.79;55.73;96860.37;582182;243;66843;-77
2022/03/05 12:47:34;;;;;;;;;;;;;;;26.79;57.04;96853.10;585150;241;63046;-76
2022/03/05 12:50:20;;;;;;;;;;;;;;;26.78;57.49;96856.88;585103;242;69017;-76
2022/03/05 12:52:58;;;;;;;;;;;;;;;26.79;56.54;96855.80;585120;242;66614;-75
2022/03/05 12:55:29;;;;;;;;;;;;;;;26.78;57.35;96851.50;585188;242;65081;-76
2022/03/05 12:58:01;;;;;;;;;;;;;;;26.79;56.17;96854.98;585190;242;68851;-77